createdAt,value
2022-10-26T00:01:15.739Z,10.28
2022-10-26T00:03:47.401Z,11.23
2022-10-26T00:06:17.835Z,10.92
2022-10-26T00:08:46.531Z,10.38
2022-10-26T00:11:15.197Z,11.15
2022-10-26T00:13:43.699Z,11.31
2022-10-26T00:16:13.425Z,8.19
2022-10-26T00:18:42.116Z,11.30
2022-10-26T00:21:12.723Z,11.06
2022-10-26T00:23:40.825Z,10.30
2022-10-26T00:26:09.505Z,9.96
2022-10-26T00:28:37.848Z,9.47
2022-10-26T00:31:08.128Z,8.07
2022-10-26T00:33:36.653Z,10.42
2022-10-26T00:36:05.892Z,11.22
2022-10-26T00:38:35.295Z,10.44
2022-10-26T00:41:03.256Z,9.46
2022-10-26T00:43:49.762Z,9.23
2022-10-26T00:46:21.307Z,8.61
2022-10-26T00:48:52.455Z,11.44
2022-10-26T00:51:26.635Z,10.47
2022-10-26T00:53:56.852Z,10.15
2022-10-26T00:56:25.443Z,9.86
2022-10-26T00:58:53.699Z,11.13
2022-10-26T01:01:21.770Z,11.07
2022-10-26T01:03:50.665Z,9.98
2022-10-26T01:06:19.049Z,10.62
2022-10-26T01:08:47.624Z,11.00
2022-10-26T01:11:17.694Z,11.62
2022-10-26T01:13:47.470Z,11.38
2022-10-26T01:16:43.327Z,11.50
2022-10-26T01:19:45.681Z,11.69
2022-10-26T01:22:18.782Z,11.13
2022-10-26T01:25:00.565Z,10.79
2022-10-26T01:27:33.292Z,11.53
2022-10-26T01:30:32.025Z,10.70
2022-10-26T01:33:16.687Z,9.02
2022-10-26T01:35:54.151Z,9.15
2022-10-26T01:38:30.362Z,10.81
2022-10-26T01:41:05.038Z,11.14
2022-10-26T01:43:36.277Z,11.80
2022-10-26T01:46:08.707Z,11.89
2022-10-26T01:48:38.700Z,11.60
2022-10-26T01:51:08.622Z,11.83
2022-10-26T01:53:36.752Z,9.83
2022-10-26T01:56:05.003Z,10.93
2022-10-26T01:58:53.260Z,12.06
2022-10-26T02:01:54.556Z,10.32
2022-10-26T02:04:36.841Z,10.06
2022-10-26T02:07:15.596Z,11.24
2022-10-26T02:09:54.837Z,10.51
2022-10-26T02:12:34.630Z,11.09
2022-10-26T02:15:08.797Z,10.63
2022-10-26T02:18:20.877Z,12.20
2022-10-26T02:20:55.536Z,10.26
2022-10-26T02:23:26.433Z,9.76
2022-10-26T02:25:58.491Z,9.74
2022-10-26T02:28:32.186Z,9.89
2022-10-26T02:31:03.993Z,10.01
2022-10-26T02:33:35.175Z,10.00
2022-10-26T02:36:14.105Z,10.30
2022-10-26T02:38:44.392Z,10.88
2022-10-26T02:41:15.323Z,11.48
2022-10-26T02:43:51.849Z,10.84
2022-10-26T02:46:23.001Z,11.23
2022-10-26T02:48:51.053Z,12.11
2022-10-26T02:51:28.125Z,12.63
2022-10-26T02:54:02.373Z,10.83
2022-10-26T02:56:36.004Z,11.75
2022-10-26T02:59:08.012Z,10.32
2022-10-26T03:01:37.131Z,10.59
2022-10-26T03:04:06.556Z,11.99
2022-10-26T03:06:36.075Z,12.11
2022-10-26T03:09:04.897Z,11.10
2022-10-26T03:11:33.829Z,12.91
2022-10-26T03:14:01.828Z,12.95
2022-10-26T03:16:29.948Z,11.97
2022-10-26T03:18:58.141Z,11.82
2022-10-26T03:21:26.086Z,11.77
2022-10-26T03:23:55.837Z,13.01
2022-10-26T03:26:23.737Z,11.59
2022-10-26T03:28:52.175Z,13.10
2022-10-26T03:31:20.573Z,12.81
2022-10-26T03:33:48.721Z,11.98
2022-10-26T03:36:16.949Z,13.15
2022-10-26T03:38:45.325Z,10.83
2022-10-26T03:41:14.980Z,12.98
2022-10-26T03:43:43.692Z,11.91
2022-10-26T03:46:14.300Z,13.24
2022-10-26T03:48:42.186Z,12.41
2022-10-26T03:51:10.092Z,11.75
2022-10-26T03:53:38.143Z,12.62
2022-10-26T03:56:06.872Z,13.29
2022-10-26T03:58:36.207Z,11.37
2022-10-26T04:01:04.497Z,13.16
2022-10-26T04:03:32.501Z,12.92
2022-10-26T04:06:01.951Z,13.05
2022-10-26T04:08:30.596Z,11.81
2022-10-26T04:11:00.990Z,12.49
2022-10-26T04:13:31.858Z,13.03
2022-10-26T04:16:01.467Z,11.68
2022-10-26T04:18:29.336Z,13.43
2022-10-26T04:20:57.704Z,12.59
2022-10-26T04:25:53.416Z,12.56
2022-10-26T04:28:21.216Z,13.41
2022-10-26T04:30:51.646Z,12.80
2022-10-26T04:33:20.835Z,13.54
2022-10-26T04:35:48.886Z,13.57
2022-10-26T04:38:17.255Z,12.71
2022-10-26T04:40:46.525Z,12.71
2022-10-26T04:46:17.464Z,13.61
2022-10-26T04:48:48.468Z,13.62
2022-10-26T04:51:16.174Z,13.61
2022-10-26T04:53:44.077Z,13.63
2022-10-26T04:56:11.798Z,13.64
2022-10-26T04:58:39.530Z,13.65
2022-10-26T05:01:07.351Z,13.66
2022-10-26T05:03:35.229Z,13.47
2022-10-26T05:06:04.394Z,13.68
2022-10-26T05:08:32.095Z,13.26
2022-10-26T05:10:59.941Z,13.70
2022-10-26T05:16:00.489Z,13.69
2022-10-26T05:18:28.705Z,13.70
2022-10-26T05:20:57.129Z,13.71
2022-10-26T05:23:26.505Z,13.71
2022-10-26T05:25:56.806Z,13.68
2022-10-26T05:28:24.643Z,13.75
2022-10-26T05:30:52.518Z,13.43
2022-10-26T05:33:20.369Z,13.08
2022-10-26T05:35:48.208Z,13.43
2022-10-26T05:38:17.881Z,13.24
2022-10-26T05:40:49.943Z,13.66
2022-10-26T05:43:18.485Z,13.66
2022-10-26T05:45:46.693Z,13.67
2022-10-26T05:48:14.583Z,12.66
2022-10-26T05:50:42.399Z,13.64
2022-10-26T05:53:10.228Z,13.64
2022-10-26T05:55:38.739Z,12.99
2022-10-26T05:58:12.519Z,13.26
2022-10-26T06:00:49.484Z,13.48
2022-10-26T06:06:02.576Z,13.64
2022-10-26T06:08:33.820Z,13.11
2022-10-26T06:11:03.037Z,13.17
2022-10-26T06:13:32.910Z,13.45
2022-10-26T06:16:13.251Z,13.02
2022-10-26T06:18:51.067Z,13.70
2022-10-26T06:21:35.880Z,13.59
2022-10-26T06:24:09.811Z,13.71
2022-10-26T06:26:44.715Z,13.64
2022-10-26T06:29:23.736Z,13.57
2022-10-26T06:31:51.685Z,13.65
2022-10-26T06:34:24.068Z,13.78
2022-10-26T06:39:26.994Z,13.45
2022-10-26T06:41:56.487Z,13.83
2022-10-26T06:44:28.095Z,13.54
2022-10-26T06:47:03.736Z,13.69
2022-10-26T06:49:35.995Z,13.84
2022-10-26T06:52:09.779Z,13.84
2022-10-26T06:54:51.409Z,13.71
2022-10-26T06:57:21.247Z,13.71
2022-10-26T06:59:53.341Z,13.20
2022-10-26T07:02:21.756Z,13.73
2022-10-26T07:04:49.637Z,13.93
2022-10-26T07:07:20.691Z,13.98
2022-10-26T07:09:48.530Z,14.03
2022-10-26T07:12:16.360Z,14.05
2022-10-26T07:14:44.247Z,13.67
2022-10-26T07:17:13.626Z,14.12
2022-10-26T07:19:42.837Z,14.14
2022-10-26T07:22:10.706Z,14.17
2022-10-26T07:24:38.590Z,13.69
2022-10-26T07:27:06.411Z,14.18
2022-10-26T07:29:35.245Z,14.19
2022-10-26T07:32:03.841Z,14.20
2022-10-26T07:34:34.234Z,14.21
2022-10-26T07:37:02.103Z,14.24
2022-10-26T07:39:32.803Z,13.33
2022-10-26T07:42:00.729Z,13.73
2022-10-26T07:44:28.672Z,13.87
2022-10-26T07:46:57.036Z,13.90
2022-10-26T07:49:27.566Z,14.19
2022-10-26T07:51:57.348Z,14.41
2022-10-26T07:54:25.176Z,14.45
2022-10-26T07:56:52.984Z,14.26
2022-10-26T07:59:21.012Z,14.51
2022-10-26T08:01:48.930Z,14.58
2022-10-26T08:04:16.845Z,14.69
2022-10-26T08:06:44.851Z,14.52
2022-10-26T08:09:14.112Z,14.85
2022-10-26T08:11:41.898Z,14.74
2022-10-26T08:14:12.161Z,15.60
2022-10-26T08:16:40.995Z,15.05
2022-10-26T08:19:09.090Z,15.74
2022-10-26T08:21:40.296Z,15.64
2022-10-26T08:24:08.692Z,15.67
2022-10-26T08:26:38.274Z,16.92
2022-10-26T08:29:06.205Z,19.33
2022-10-26T08:31:34.265Z,20.03
2022-10-26T08:34:03.979Z,20.00
2022-10-26T08:36:31.851Z,19.74
2022-10-26T08:41:41.802Z,19.07
2022-10-26T08:44:22.728Z,18.90
2022-10-26T08:46:54.405Z,18.66
2022-10-26T08:49:26.075Z,18.86
2022-10-26T08:51:58.840Z,18.84
2022-10-26T08:54:38.125Z,19.55
2022-10-26T08:57:18.783Z,23.33
2022-10-26T08:59:54.277Z,24.45
2022-10-26T09:02:24.021Z,23.58
2022-10-26T09:04:52.884Z,23.05
2022-10-26T09:07:41.073Z,23.66
2022-10-26T09:10:23.171Z,26.42
2022-10-26T09:12:59.198Z,26.30
2022-10-26T09:15:34.074Z,24.67
2022-10-26T09:18:15.772Z,23.51
2022-10-26T09:20:54.369Z,23.73
2022-10-26T09:23:38.756Z,23.35
2022-10-26T09:26:22.820Z,22.53
2022-10-26T09:28:52.285Z,22.20
2022-10-26T09:31:20.620Z,21.93
2022-10-26T09:33:48.779Z,21.75
2022-10-26T09:36:20.772Z,21.75
2022-10-26T09:38:52.350Z,21.76
2022-10-26T09:41:28.282Z,21.80
2022-10-26T09:44:12.745Z,21.41
2022-10-26T09:46:49.293Z,21.84
2022-10-26T09:49:19.829Z,22.78
2022-10-26T09:51:49.485Z,23.28
2022-10-26T09:54:19.459Z,23.33
2022-10-26T09:56:51.143Z,23.38
2022-10-26T09:59:23.512Z,22.82
2022-10-26T10:01:51.811Z,23.46
2022-10-26T10:04:22.527Z,23.61
2022-10-26T10:06:52.205Z,23.26
2022-10-26T10:09:21.945Z,23.79
2022-10-26T10:11:56.463Z,24.54
2022-10-26T10:14:27.949Z,25.81
2022-10-26T10:16:57.651Z,26.66
2022-10-26T10:19:27.695Z,28.08
2022-10-26T10:21:58.277Z,30.07
2022-10-26T10:24:29.096Z,32.44
2022-10-26T10:26:59.077Z,32.28
2022-10-26T10:29:29.340Z,30.45
2022-10-26T10:31:59.035Z,29.78
2022-10-26T10:34:27.030Z,29.91
2022-10-26T10:36:56.709Z,30.04
2022-10-26T10:39:43.425Z,30.08
2022-10-26T10:42:21.845Z,31.53
2022-10-26T10:44:55.203Z,35.12
2022-10-26T10:47:28.592Z,37.50
2022-10-26T10:50:01.935Z,37.10
2022-10-26T10:52:32.533Z,36.60
2022-10-26T10:55:11.925Z,36.65
2022-10-26T10:57:53.927Z,36.82
2022-10-26T11:00:23.864Z,36.10
2022-10-26T11:03:16.890Z,33.48
2022-10-26T11:06:00.022Z,31.69
2022-10-26T11:08:33.451Z,31.37
2022-10-26T11:11:06.856Z,32.73
2022-10-26T11:13:39.550Z,35.30
2022-10-26T11:16:14.557Z,37.64
2022-10-26T11:18:47.701Z,40.18
2022-10-26T11:21:24.223Z,41.98
2022-10-26T11:23:58.934Z,41.69
2022-10-26T11:26:32.202Z,41.44
2022-10-26T11:29:04.077Z,40.71
2022-10-26T11:31:39.002Z,39.70
2022-10-26T11:34:17.223Z,39.37
2022-10-26T11:36:50.215Z,39.79
2022-10-26T11:39:23.466Z,38.96
2022-10-26T11:41:56.206Z,39.03
2022-10-26T11:44:30.087Z,37.71
2022-10-26T11:47:03.710Z,37.62
2022-10-26T11:49:40.708Z,37.80
2022-10-26T11:52:17.681Z,38.94
2022-10-26T11:54:52.045Z,38.36
2022-10-26T11:57:21.823Z,36.23
2022-10-26T11:59:53.386Z,36.21
2022-10-26T12:02:24.103Z,36.45
2022-10-26T12:04:57.691Z,38.35
2022-10-26T12:07:30.285Z,39.85
2022-10-26T12:09:59.991Z,39.79
2022-10-26T12:12:37.323Z,40.72
2022-10-26T12:15:18.078Z,40.70
2022-10-26T12:17:55.490Z,40.93
2022-10-26T12:20:53.304Z,41.74
2022-10-26T12:23:33.848Z,40.60
2022-10-26T12:26:39.593Z,39.27
2022-10-26T12:29:36.977Z,38.09
2022-10-26T12:32:26.576Z,36.15
2022-10-26T12:35:04.310Z,33.91
2022-10-26T12:37:37.607Z,32.48
2022-10-26T12:40:41.523Z,31.18
2022-10-26T12:43:35.509Z,30.01
2022-10-26T12:46:43.038Z,29.11
2022-10-26T12:49:58.479Z,28.15
2022-10-26T12:52:47.298Z,26.91
2022-10-26T12:55:42.359Z,27.42
2022-10-26T12:58:35.664Z,27.20
2022-10-26T13:01:44.922Z,26.98
2022-10-26T13:04:28.086Z,26.67
2022-10-26T13:07:17.352Z,26.49
2022-10-26T13:09:56.329Z,26.45
2022-10-26T13:12:24.736Z,26.23
2022-10-26T13:15:05.475Z,26.35
2022-10-26T13:20:08.702Z,26.08
2022-10-26T13:22:47.006Z,25.94
2022-10-26T13:25:23.522Z,24.49
2022-10-26T13:28:03.818Z,25.53
2022-10-26T13:30:49.579Z,25.53
2022-10-26T13:33:34.982Z,25.41
2022-10-26T13:36:07.730Z,24.95
2022-10-26T13:38:37.630Z,24.80
2022-10-26T13:41:23.256Z,23.98
2022-10-26T13:43:52.658Z,24.78
2022-10-26T13:46:28.765Z,24.63
2022-10-26T13:49:02.479Z,24.53
2022-10-26T13:51:40.885Z,24.42
2022-10-26T13:54:19.478Z,24.23
2022-10-26T13:57:00.227Z,24.11
2022-10-26T13:59:31.135Z,24.01
2022-10-26T14:02:16.682Z,24.03
2022-10-26T14:04:48.098Z,23.95
2022-10-26T14:07:26.783Z,23.84
2022-10-26T14:09:56.869Z,23.70
2022-10-26T14:12:29.113Z,23.56
2022-10-26T14:15:03.637Z,23.42
2022-10-26T14:17:31.704Z,23.24
2022-10-26T14:19:59.646Z,23.14
2022-10-26T14:22:29.978Z,23.08
2022-10-26T14:24:59.865Z,22.94
2022-10-26T14:27:34.134Z,22.96
2022-10-26T14:30:21.594Z,22.90
2022-10-26T14:32:50.797Z,22.84
2022-10-26T14:35:19.716Z,22.76
2022-10-26T14:37:52.358Z,22.68
2022-10-26T14:40:22.688Z,22.60
2022-10-26T14:42:54.849Z,22.50
2022-10-26T14:45:49.158Z,22.26
2022-10-26T14:48:36.488Z,22.28
2022-10-26T14:51:10.429Z,22.19
2022-10-26T14:53:39.866Z,22.09
2022-10-26T14:56:22.424Z,21.91
2022-10-26T14:58:52.536Z,21.83
2022-10-26T15:01:31.644Z,21.70
2022-10-26T15:04:05.425Z,21.54
2022-10-26T15:06:39.281Z,21.22
2022-10-26T15:09:07.808Z,21.25
2022-10-26T15:11:36.301Z,21.13
2022-10-26T15:14:13.273Z,21.03
2022-10-26T15:16:41.649Z,20.92
2022-10-26T15:19:11.729Z,20.74
2022-10-26T15:21:41.107Z,20.73
2022-10-26T15:24:35.949Z,20.60
2022-10-26T15:27:13.995Z,20.47
2022-10-26T15:29:45.572Z,20.35
2022-10-26T15:32:26.262Z,20.22
2022-10-26T15:35:14.896Z,20.08
2022-10-26T15:37:42.705Z,19.97
2022-10-26T15:40:11.542Z,19.85
2022-10-26T15:42:41.245Z,19.75
2022-10-26T15:45:18.410Z,19.62
2022-10-26T15:47:47.007Z,19.49
2022-10-26T15:50:16.408Z,18.98
2022-10-26T15:52:46.784Z,19.17
2022-10-26T15:55:17.895Z,18.99
2022-10-26T15:57:45.989Z,18.55
2022-10-26T16:00:18.253Z,18.52
2022-10-26T16:02:46.941Z,18.56
2022-10-26T16:05:16.943Z,17.25
2022-10-26T16:07:48.246Z,18.25
2022-10-26T16:10:21.101Z,17.64
2022-10-26T16:12:50.118Z,18.01
2022-10-26T16:15:21.509Z,17.88
2022-10-26T16:17:50.062Z,17.61
2022-10-26T16:20:22.623Z,17.51
2022-10-26T16:22:51.538Z,17.44
2022-10-26T16:25:21.620Z,16.91
2022-10-26T16:27:50.475Z,17.19
2022-10-26T16:30:20.810Z,17.11
2022-10-26T16:32:49.115Z,16.85
2022-10-26T16:35:17.237Z,16.85
2022-10-26T16:37:46.409Z,16.61
2022-10-26T16:40:14.766Z,16.65
2022-10-26T16:42:44.435Z,16.54
2022-10-26T16:45:12.530Z,16.43
2022-10-26T16:47:42.440Z,16.32
2022-10-26T16:50:11.788Z,16.22
2022-10-26T16:52:40.103Z,16.14
2022-10-26T16:55:09.672Z,16.07
2022-10-26T16:57:38.290Z,16.01
2022-10-26T17:00:07.653Z,15.94
2022-10-26T17:02:35.842Z,15.60
2022-10-26T17:05:07.591Z,15.73
2022-10-26T17:07:36.130Z,15.62
2022-10-26T17:10:04.605Z,15.54
2022-10-26T17:12:32.629Z,15.46
2022-10-26T17:15:01.427Z,15.37
2022-10-26T17:17:29.194Z,15.29
2022-10-26T17:19:57.236Z,15.22
2022-10-26T17:22:26.295Z,15.00
2022-10-26T17:24:54.033Z,15.07
2022-10-26T17:27:23.011Z,14.98
2022-10-26T17:29:50.855Z,14.91
2022-10-26T17:32:18.873Z,14.85
2022-10-26T17:34:46.597Z,14.77
2022-10-26T17:37:14.423Z,14.71
2022-10-26T17:39:43.494Z,14.63
2022-10-26T17:42:11.477Z,14.54
2022-10-26T17:44:39.871Z,14.47
2022-10-26T17:47:08.671Z,14.42
2022-10-26T17:49:36.597Z,14.37
2022-10-26T17:52:05.865Z,14.33
2022-10-26T17:54:33.923Z,14.29
2022-10-26T17:57:03.222Z,14.24
2022-10-26T17:59:30.970Z,13.74
2022-10-26T18:01:58.814Z,14.12
2022-10-26T18:04:27.067Z,14.07
2022-10-26T18:06:54.905Z,14.03
2022-10-26T18:09:22.657Z,13.96
2022-10-26T18:11:53.422Z,13.90
2022-10-26T18:14:25.107Z,13.85
2022-10-26T18:16:53.267Z,13.82
2022-10-26T18:19:22.045Z,13.78
2022-10-26T18:21:49.815Z,13.75
2022-10-26T18:24:17.753Z,13.72
2022-10-26T18:26:46.604Z,13.68
2022-10-26T18:29:14.344Z,13.62
2022-10-26T18:31:45.764Z,13.57
2022-10-26T18:34:13.520Z,13.43
2022-10-26T18:36:41.427Z,13.47
2022-10-26T18:39:09.179Z,13.43
2022-10-26T18:41:37.086Z,13.39
2022-10-26T18:44:05.672Z,13.35
2022-10-26T18:46:39.680Z,13.02
2022-10-26T18:49:10.279Z,13.26
2022-10-26T18:51:38.040Z,13.23
2022-10-26T18:54:05.934Z,13.18
2022-10-26T18:56:33.676Z,13.13
2022-10-26T18:59:01.941Z,13.14
2022-10-26T19:01:32.421Z,13.18
2022-10-26T19:04:02.307Z,13.24
2022-10-26T19:06:32.833Z,13.23
2022-10-26T19:09:01.701Z,13.17
2022-10-26T19:11:31.323Z,13.01
2022-10-26T19:13:59.609Z,13.08
2022-10-26T19:16:46.318Z,13.05
2022-10-26T19:19:15.472Z,12.49
2022-10-26T19:21:49.175Z,12.94
2022-10-26T19:24:18.734Z,12.87
2022-10-26T19:26:47.302Z,12.82
2022-10-26T19:29:17.252Z,12.80
2022-10-26T19:31:46.394Z,12.75
2022-10-26T19:34:16.344Z,12.67
2022-10-26T19:36:46.437Z,12.51
2022-10-26T19:39:16.861Z,12.67
2022-10-26T19:41:45.143Z,12.55
2022-10-26T19:44:14.438Z,12.62
2022-10-26T19:46:43.561Z,12.59
2022-10-26T19:49:12.462Z,12.56
2022-10-26T19:51:40.405Z,12.52
2022-10-26T19:54:08.608Z,12.50
2022-10-26T19:56:38.885Z,12.32
2022-10-26T19:59:08.039Z,12.47
2022-10-26T20:01:36.321Z,12.38
2022-10-26T20:04:05.907Z,12.45
2022-10-26T20:06:33.795Z,12.43
2022-10-26T20:09:02.274Z,12.41
2022-10-26T20:11:32.381Z,12.09
2022-10-26T20:14:08.241Z,12.34
2022-10-26T20:16:36.051Z,12.30
2022-10-26T20:19:03.820Z,12.27
2022-10-26T20:21:32.184Z,12.25
2022-10-26T20:23:59.963Z,12.23
2022-10-26T20:26:28.689Z,12.22
2022-10-26T20:28:56.690Z,12.20
2022-10-26T20:31:26.897Z,12.17
2022-10-26T20:33:54.754Z,12.10
2022-10-26T20:36:23.228Z,11.99
2022-10-26T20:38:51.724Z,12.13
2022-10-26T20:41:20.136Z,12.11
2022-10-26T20:43:48.669Z,12.10
2022-10-26T20:46:23.213Z,12.08
2022-10-26T20:48:55.024Z,11.81
2022-10-26T20:51:36.786Z,11.75
2022-10-26T20:54:09.464Z,11.02
2022-10-26T20:56:42.074Z,11.72
2022-10-26T20:59:19.195Z,12.04
2022-10-26T21:01:47.078Z,11.55
2022-10-26T21:04:16.766Z,11.23
2022-10-26T21:06:44.597Z,11.08
2022-10-26T21:09:12.814Z,11.09
2022-10-26T21:11:40.917Z,11.92
2022-10-26T21:14:09.192Z,10.85
2022-10-26T21:16:37.873Z,11.90
2022-10-26T21:19:08.227Z,11.82
2022-10-26T21:21:37.595Z,11.64
2022-10-26T21:24:05.957Z,11.06
2022-10-26T21:26:33.976Z,11.78
2022-10-26T21:29:01.979Z,11.76
2022-10-26T21:31:30.301Z,11.74
2022-10-26T21:33:58.286Z,11.36
2022-10-26T21:36:26.129Z,11.71
2022-10-26T21:38:55.774Z,11.57
2022-10-26T21:44:03.288Z,10.78
2022-10-26T21:46:38.136Z,11.37
2022-10-26T21:49:06.205Z,11.63
2022-10-26T21:51:35.156Z,11.61
2022-10-26T21:54:04.911Z,11.27
2022-10-26T21:56:33.137Z,11.59
2022-10-26T21:59:01.612Z,10.60
2022-10-26T22:01:29.719Z,10.27
2022-10-26T22:03:57.980Z,10.50
2022-10-26T22:06:26.151Z,11.50
2022-10-26T22:08:54.293Z,11.50
2022-10-26T22:11:25.160Z,11.48
2022-10-26T22:13:54.116Z,11.41
2022-10-26T22:16:24.572Z,11.42
2022-10-26T22:18:53.613Z,10.92
2022-10-26T22:21:23.218Z,11.42
2022-10-26T22:23:51.024Z,11.22
2022-10-26T22:26:20.814Z,10.60
2022-10-26T22:28:52.951Z,10.61
2022-10-26T22:31:22.904Z,10.74
2022-10-26T22:33:52.688Z,11.24
2022-10-26T22:36:21.023Z,10.58
2022-10-26T22:38:49.671Z,11.10
2022-10-26T22:41:18.853Z,11.14
2022-10-26T22:43:47.286Z,11.07
2022-10-26T22:46:20.227Z,11.21
2022-10-26T22:48:48.544Z,11.18
2022-10-26T22:51:18.533Z,10.54
2022-10-26T22:53:47.204Z,11.14
2022-10-26T22:56:15.416Z,11.08
2022-10-26T22:58:43.612Z,10.42
2022-10-26T23:01:13.398Z,10.36
2022-10-26T23:03:42.572Z,10.15
2022-10-26T23:06:12.487Z,11.07
2022-10-26T23:08:40.923Z,10.87
2022-10-26T23:11:11.664Z,11.03
2022-10-26T23:13:39.527Z,11.02
2022-10-26T23:16:09.022Z,10.34
2022-10-26T23:18:38.147Z,10.38
2022-10-26T23:21:09.314Z,10.95
2022-10-26T23:23:37.911Z,10.12
2022-10-26T23:26:07.885Z,10.91
2022-10-26T23:28:36.341Z,10.21
2022-10-26T23:31:05.029Z,10.90
2022-10-26T23:33:33.635Z,10.87
2022-10-26T23:36:02.155Z,10.25
2022-10-26T23:38:31.540Z,10.83
2022-10-26T23:41:00.782Z,10.58
2022-10-26T23:43:29.210Z,10.13
2022-10-26T23:45:57.463Z,9.80
2022-10-26T23:48:25.533Z,10.70
2022-10-26T23:50:53.621Z,9.39
2022-10-26T23:53:24.291Z,9.09
2022-10-26T23:55:53.566Z,9.67
2022-10-26T23:58:21.471Z,9.80
